To NAV CANADA Home Page Login to a new session Search on AWWS site Feedback and Comments Disclaimer Vers la page française équivalente Tips FAQ What's new on the site To the Forecasts and Observations / NOTAM section To "File a Flight Plan" website Publications and other links Update of the User's profile FIC Telephone Numbers My Weather Data Folder Route Weather Data Regional Weather Data Local Weather Data To the Forecasts and Observations / NOTAM section
Request Generated 04/16/2014 at 04:10:43 UTC . Weather information available at that time is displayed.

METAR/TAF

MONTREAL/MONTREAL INTL (MIRABEL)/QC    

METAR CYMX 160400Z 28009G19KT 25SM -SN BKN026 BKN045 OVC120 M05/M10
A2996 RMK SC5SC2AC1 PRESRR SLP150=
METAR CYMX 160300Z 30010KT 25SM -SN BKN028 BKN045 OVC080 M05/M11
A2989 RMK SC5SC2AC1 SLP125=
METAR CYMX 160200Z 28009G18KT 25SM -SN BKN025 OVC080 M04/M09 A2988
RMK SC7AC1 PRESRR SLP120=

TAF CYMX 152338Z 1600/1624 28012G22KT P6SM -SHSN OVC025 TEMPO
1600/1606 3SM -SHSN FEW008 OVC015
FM160600 29012G22KT P6SM -SHSN BKN040 BKN150
FM160800 29008KT P6SM FEW030
BECMG 1610/1612 29012G22KT
FM161800 29012KT P6SM SKC
BECMG 1622/1624 25005KT
RMK NXT FCST BY 160600Z=
Your time UTC time
Weather data provided by Environment Canada and NAV CANADA